sensor_id;sensor_type;location;lat;lon;timestamp;P1;durP1;ratioP1;P2;durP2;ratioP2
1839;SDS011;920;48.944;9.148;2023-06-19T00:00:28;8.17;;;7.47;;
1839;SDS011;920;48.944;9.148;2023-06-19T00:02:55;8.10;;;7.40;;
1839;SDS011;920;48.944;9.148;2023-06-19T00:05:22;7.77;;;7.10;;
1839;SDS011;920;48.944;9.148;2023-06-19T00:07:50;7.33;;;6.73;;
1839;SDS011;920;48.944;9.148;2023-06-19T00:10:17;7.30;;;6.60;;
1839;SDS011;920;48.944;9.148;2023-06-19T00:12:45;7.73;;;7.03;;
1839;SDS011;920;48.944;9.148;2023-06-19T00:15:12;8.87;;;7.77;;
1839;SDS011;920;48.944;9.148;2023-06-19T00:17:39;7.07;;;6.43;;
1839;SDS011;920;48.944;9.148;2023-06-19T00:20:06;7.83;;;7.13;;
1839;SDS011;920;48.944;9.148;2023-06-19T00:22:34;7.17;;;6.57;;
1839;SDS011;920;48.944;9.148;2023-06-19T00:25:01;8.20;;;7.40;;
1839;SDS011;920;48.944;9.148;2023-06-19T00:27:27;7.70;;;6.90;;
1839;SDS011;920;48.944;9.148;2023-06-19T00:29:56;7.90;;;7.20;;
1839;SDS011;920;48.944;9.148;2023-06-19T00:32:27;9.07;;;8.20;;
1839;SDS011;920;48.944;9.148;2023-06-19T00:34:55;7.93;;;7.23;;
1839;SDS011;920;48.944;9.148;2023-06-19T00:37:24;7.37;;;6.70;;
1839;SDS011;920;48.944;9.148;2023-06-19T00:39:52;7.57;;;6.87;;
1839;SDS011;920;48.944;9.148;2023-06-19T00:42:19;7.30;;;6.70;;
1839;SDS011;920;48.944;9.148;2023-06-19T00:44:46;7.27;;;6.67;;
1839;SDS011;920;48.944;9.148;2023-06-19T00:47:14;8.60;;;7.80;;
1839;SDS011;920;48.944;9.148;2023-06-19T00:49:41;8.00;;;7.30;;
1839;SDS011;920;48.944;9.148;2023-06-19T00:52:07;8.30;;;7.60;;
1839;SDS011;920;48.944;9.148;2023-06-19T00:54:34;7.40;;;6.73;;
1839;SDS011;920;48.944;9.148;2023-06-19T00:57:01;7.77;;;6.97;;
1839;SDS011;920;48.944;9.148;2023-06-19T00:59:28;8.23;;;7.50;;
1839;SDS011;920;48.944;9.148;2023-06-19T01:01:55;7.97;;;7.27;;
1839;SDS011;920;48.944;9.148;2023-06-19T01:04:23;9.37;;;8.57;;
1839;SDS011;920;48.944;9.148;2023-06-19T01:06:53;8.37;;;7.67;;
1839;SDS011;920;48.944;9.148;2023-06-19T01:09:24;9.53;;;8.63;;
1839;SDS011;920;48.944;9.148;2023-06-19T01:11:59;9.07;;;8.17;;
1839;SDS011;920;48.944;9.148;2023-06-19T01:14:44;8.67;;;7.73;;
1839;SDS011;920;48.944;9.148;2023-06-19T01:17:13;9.37;;;8.33;;
1839;SDS011;920;48.944;9.148;2023-06-19T01:19:41;8.10;;;7.40;;
1839;SDS011;920;48.944;9.148;2023-06-19T01:22:10;8.40;;;7.33;;
1839;SDS011;920;48.944;9.148;2023-06-19T01:24:36;8.50;;;7.13;;
1839;SDS011;920;48.944;9.148;2023-06-19T01:27:03;8.30;;;7.37;;
1839;SDS011;920;48.944;9.148;2023-06-19T01:29:30;8.10;;;6.53;;
1839;SDS011;920;48.944;9.148;2023-06-19T01:31:58;7.50;;;6.60;;
1839;SDS011;920;48.944;9.148;2023-06-19T01:34:26;6.30;;;5.70;;
1839;SDS011;920;48.944;9.148;2023-06-19T01:36:55;6.60;;;5.10;;
1839;SDS011;920;48.944;9.148;2023-06-19T01:39:24;6.80;;;5.27;;
1839;SDS011;920;48.944;9.148;2023-06-19T01:41:52;5.33;;;4.83;;
1839;SDS011;920;48.944;9.148;2023-06-19T01:44:19;6.30;;;4.37;;
1839;SDS011;920;48.944;9.148;2023-06-19T01:46:47;5.60;;;4.37;;
1839;SDS011;920;48.944;9.148;2023-06-19T01:49:14;6.00;;;4.93;;
1839;SDS011;920;48.944;9.148;2023-06-19T01:51:41;5.13;;;4.63;;
1839;SDS011;920;48.944;9.148;2023-06-19T01:54:07;5.93;;;4.27;;
1839;SDS011;920;48.944;9.148;2023-06-19T01:56:35;6.97;;;5.30;;
1839;SDS011;920;48.944;9.148;2023-06-19T01:59:02;5.07;;;4.27;;
1839;SDS011;920;48.944;9.148;2023-06-19T02:01:29;5.97;;;4.43;;
1839;SDS011;920;48.944;9.148;2023-06-19T02:03:56;7.30;;;4.10;;
1839;SDS011;920;48.944;9.148;2023-06-19T02:06:22;4.70;;;4.20;;
1839;SDS011;920;48.944;9.148;2023-06-19T02:08:49;4.37;;;3.97;;
1839;SDS011;920;48.944;9.148;2023-06-19T02:11:16;4.60;;;3.77;;
1839;SDS011;920;48.944;9.148;2023-06-19T02:13:44;6.07;;;3.73;;
1839;SDS011;920;48.944;9.148;2023-06-19T02:16:11;4.10;;;3.70;;
1839;SDS011;920;48.944;9.148;2023-06-19T02:18:38;4.53;;;4.07;;
1839;SDS011;920;48.944;9.148;2023-06-19T02:21:06;4.10;;;3.70;;
1839;SDS011;920;48.944;9.148;2023-06-19T02:23:33;4.53;;;4.10;;
1839;SDS011;920;48.944;9.148;2023-06-19T02:26:00;4.27;;;3.87;;
1839;SDS011;920;48.944;9.148;2023-06-19T02:28:27;4.53;;;3.53;;
1839;SDS011;920;48.944;9.148;2023-06-19T02:30:55;5.73;;;4.03;;
1839;SDS011;920;48.944;9.148;2023-06-19T02:33:22;4.70;;;3.63;;
1839;SDS011;920;48.944;9.148;2023-06-19T02:35:52;4.40;;;4.00;;
1839;SDS011;920;48.944;9.148;2023-06-19T02:38:24;13.13;;;4.47;;
1839;SDS011;920;48.944;9.148;2023-06-19T02:43:45;4.60;;;3.27;;
1839;SDS011;920;48.944;9.148;2023-06-19T02:46:14;3.60;;;3.30;;
1839;SDS011;920;48.944;9.148;2023-06-19T02:48:40;4.00;;;3.50;;
1839;SDS011;920;48.944;9.148;2023-06-19T02:51:07;5.30;;;3.30;;
1839;SDS011;920;48.944;9.148;2023-06-19T02:53:34;3.47;;;3.17;;
1839;SDS011;920;48.944;9.148;2023-06-19T02:56:01;3.63;;;3.33;;
1839;SDS011;920;48.944;9.148;2023-06-19T02:58:27;4.30;;;3.10;;
1839;SDS011;920;48.944;9.148;2023-06-19T03:00:55;3.20;;;2.90;;
1839;SDS011;920;48.944;9.148;2023-06-19T03:03:23;3.50;;;3.20;;
1839;SDS011;920;48.944;9.148;2023-06-19T03:05:49;3.80;;;3.03;;
1839;SDS011;920;48.944;9.148;2023-06-19T03:08:16;3.33;;;3.03;;
1839;SDS011;920;48.944;9.148;2023-06-19T03:10:43;3.30;;;3.00;;
1839;SDS011;920;48.944;9.148;2023-06-19T03:13:12;3.53;;;2.90;;
1839;SDS011;920;48.944;9.148;2023-06-19T03:15:39;4.30;;;2.87;;
1839;SDS011;920;48.944;9.148;2023-06-19T03:18:05;4.63;;;2.97;;
1839;SDS011;920;48.944;9.148;2023-06-19T03:20:38;4.57;;;2.90;;
1839;SDS011;920;48.944;9.148;2023-06-19T03:23:05;3.70;;;3.07;;
1839;SDS011;920;48.944;9.148;2023-06-19T03:25:32;3.40;;;3.03;;
1839;SDS011;920;48.944;9.148;2023-06-19T03:28:00;4.90;;;3.60;;
1839;SDS011;920;48.944;9.148;2023-06-19T03:30:27;4.03;;;3.37;;
1839;SDS011;920;48.944;9.148;2023-06-19T03:32:54;4.00;;;3.60;;
1839;SDS011;920;48.944;9.148;2023-06-19T03:35:35;3.70;;;3.40;;
1839;SDS011;920;48.944;9.148;2023-06-19T03:38:04;3.37;;;3.07;;
1839;SDS011;920;48.944;9.148;2023-06-19T03:40:31;5.33;;;3.20;;
1839;SDS011;920;48.944;9.148;2023-06-19T03:43:05;3.97;;;3.37;;
1839;SDS011;920;48.944;9.148;2023-06-19T03:45:32;4.97;;;3.10;;
1839;SDS011;920;48.944;9.148;2023-06-19T03:47:58;3.03;;;2.73;;
1839;SDS011;920;48.944;9.148;2023-06-19T03:50:25;4.10;;;3.00;;
1839;SDS011;920;48.944;9.148;2023-06-19T03:52:53;4.27;;;3.20;;
1839;SDS011;920;48.944;9.148;2023-06-19T03:55:20;2.83;;;2.43;;
1839;SDS011;920;48.944;9.148;2023-06-19T03:57:48;4.70;;;2.80;;
1839;SDS011;920;48.944;9.148;2023-06-19T04:00:15;3.43;;;2.50;;
1839;SDS011;920;48.944;9.148;2023-06-19T04:02:43;2.93;;;2.63;;
1839;SDS011;920;48.944;9.148;2023-06-19T04:05:11;3.13;;;2.83;;
1839;SDS011;920;48.944;9.148;2023-06-19T04:07:38;3.00;;;2.70;;
1839;SDS011;920;48.944;9.148;2023-06-19T04:10:07;3.93;;;3.03;;
1839;SDS011;920;48.944;9.148;2023-06-19T04:12:34;2.90;;;2.60;;
1839;SDS011;920;48.944;9.148;2023-06-19T04:15:01;3.07;;;2.33;;
1839;SDS011;920;48.944;9.148;2023-06-19T04:17:27;3.57;;;2.50;;
1839;SDS011;920;48.944;9.148;2023-06-19T04:19:54;3.00;;;2.60;;
1839;SDS011;920;48.944;9.148;2023-06-19T04:22:21;3.27;;;2.87;;
1839;SDS011;920;48.944;9.148;2023-06-19T04:24:48;2.80;;;2.50;;
1839;SDS011;920;48.944;9.148;2023-06-19T04:27:16;3.23;;;2.70;;
1839;SDS011;920;48.944;9.148;2023-06-19T04:29:43;4.50;;;2.60;;
1839;SDS011;920;48.944;9.148;2023-06-19T04:32:10;3.40;;;2.60;;
1839;SDS011;920;48.944;9.148;2023-06-19T04:34:37;5.97;;;2.87;;
1839;SDS011;920;48.944;9.148;2023-06-19T04:37:04;2.77;;;2.43;;
1839;SDS011;920;48.944;9.148;2023-06-19T04:39:31;3.13;;;2.83;;
1839;SDS011;920;48.944;9.148;2023-06-19T04:41:59;3.70;;;2.50;;
1839;SDS011;920;48.944;9.148;2023-06-19T04:44:27;3.20;;;2.70;;
1839;SDS011;920;48.944;9.148;2023-06-19T04:46:55;3.50;;;3.20;;
1839;SDS011;920;48.944;9.148;2023-06-19T04:49:26;3.30;;;2.90;;
1839;SDS011;920;48.944;9.148;2023-06-19T04:51:55;3.37;;;3.07;;
1839;SDS011;920;48.944;9.148;2023-06-19T04:54:21;4.67;;;2.80;;
1839;SDS011;920;48.944;9.148;2023-06-19T04:56:48;4.07;;;3.40;;
1839;SDS011;920;48.944;9.148;2023-06-19T04:59:15;4.23;;;2.73;;
1839;SDS011;920;48.944;9.148;2023-06-19T05:01:44;3.67;;;3.07;;
1839;SDS011;920;48.944;9.148;2023-06-19T05:04:11;7.10;;;3.20;;
1839;SDS011;920;48.944;9.148;2023-06-19T05:06:37;3.30;;;2.80;;
1839;SDS011;920;48.944;9.148;2023-06-19T05:09:04;3.87;;;2.70;;
1839;SDS011;920;48.944;9.148;2023-06-19T05:11:31;4.10;;;2.90;;
1839;SDS011;920;48.944;9.148;2023-06-19T05:13:58;3.73;;;2.83;;
1839;SDS011;920;48.944;9.148;2023-06-19T05:16:25;2.87;;;2.50;;
1839;SDS011;920;48.944;9.148;2023-06-19T05:18:53;3.47;;;2.60;;
1839;SDS011;920;48.944;9.148;2023-06-19T05:21:19;2.60;;;2.13;;
1839;SDS011;920;48.944;9.148;2023-06-19T05:23:46;3.70;;;2.87;;
1839;SDS011;920;48.944;9.148;2023-06-19T05:26:15;3.60;;;2.60;;
1839;SDS011;920;48.944;9.148;2023-06-19T05:28:42;2.60;;;2.40;;
1839;SDS011;920;48.944;9.148;2023-06-19T05:31:09;3.40;;;2.47;;
1839;SDS011;920;48.944;9.148;2023-06-19T05:33:35;3.63;;;2.90;;
1839;SDS011;920;48.944;9.148;2023-06-19T05:36:04;3.00;;;2.63;;
1839;SDS011;920;48.944;9.148;2023-06-19T05:38:31;3.83;;;2.60;;
1839;SDS011;920;48.944;9.148;2023-06-19T05:40:57;3.00;;;2.70;;
1839;SDS011;920;48.944;9.148;2023-06-19T05:43:24;3.30;;;3.00;;
1839;SDS011;920;48.944;9.148;2023-06-19T05:45:51;3.70;;;2.60;;
1839;SDS011;920;48.944;9.148;2023-06-19T05:48:18;3.10;;;2.73;;
1839;SDS011;920;48.944;9.148;2023-06-19T05:50:45;2.97;;;2.50;;
1839;SDS011;920;48.944;9.148;2023-06-19T05:53:13;5.30;;;2.47;;
1839;SDS011;920;48.944;9.148;2023-06-19T05:55:40;3.07;;;2.70;;
1839;SDS011;920;48.944;9.148;2023-06-19T05:58:07;2.60;;;2.40;;
1839;SDS011;920;48.944;9.148;2023-06-19T06:00:33;3.00;;;2.60;;
1839;SDS011;920;48.944;9.148;2023-06-19T06:03:00;3.20;;;2.70;;
1839;SDS011;920;48.944;9.148;2023-06-19T06:05:27;3.00;;;2.50;;
1839;SDS011;920;48.944;9.148;2023-06-19T06:07:54;3.57;;;2.80;;
1839;SDS011;920;48.944;9.148;2023-06-19T06:10:23;3.17;;;2.63;;
1839;SDS011;920;48.944;9.148;2023-06-19T06:12:50;3.00;;;2.67;;
1839;SDS011;920;48.944;9.148;2023-06-19T06:15:17;2.53;;;2.23;;
1839;SDS011;920;48.944;9.148;2023-06-19T06:17:44;3.20;;;2.83;;
1839;SDS011;920;48.944;9.148;2023-06-19T06:20:11;3.20;;;2.50;;
1839;SDS011;920;48.944;9.148;2023-06-19T06:22:38;3.30;;;2.73;;
1839;SDS011;920;48.944;9.148;2023-06-19T06:25:05;3.00;;;2.70;;
1839;SDS011;920;48.944;9.148;2023-06-19T06:27:34;3.80;;;2.63;;
1839;SDS011;920;48.944;9.148;2023-06-19T06:30:01;3.00;;;2.47;;
1839;SDS011;920;48.944;9.148;2023-06-19T06:32:28;4.50;;;2.80;;
1839;SDS011;920;48.944;9.148;2023-06-19T06:34:56;3.07;;;2.57;;
1839;SDS011;920;48.944;9.148;2023-06-19T06:37:24;3.30;;;2.80;;
1839;SDS011;920;48.944;9.148;2023-06-19T06:39:50;3.20;;;2.73;;
1839;SDS011;920;48.944;9.148;2023-06-19T06:42:17;3.20;;;2.90;;
1839;SDS011;920;48.944;9.148;2023-06-19T06:44:46;3.20;;;2.40;;
1839;SDS011;920;48.944;9.148;2023-06-19T06:47:12;6.23;;;2.50;;
1839;SDS011;920;48.944;9.148;2023-06-19T06:49:39;3.20;;;2.70;;
1839;SDS011;920;48.944;9.148;2023-06-19T06:52:06;2.77;;;2.53;;
1839;SDS011;920;48.944;9.148;2023-06-19T06:54:33;3.50;;;2.83;;
1839;SDS011;920;48.944;9.148;2023-06-19T06:57:00;4.43;;;2.57;;
1839;SDS011;920;48.944;9.148;2023-06-19T06:59:27;2.97;;;2.67;;
1839;SDS011;920;48.944;9.148;2023-06-19T07:01:55;2.60;;;2.40;;
1839;SDS011;920;48.944;9.148;2023-06-19T07:04:22;3.30;;;3.00;;
1839;SDS011;920;48.944;9.148;2023-06-19T07:06:49;3.10;;;2.80;;
1839;SDS011;920;48.944;9.148;2023-06-19T07:09:16;3.10;;;2.80;;
1839;SDS011;920;48.944;9.148;2023-06-19T07:11:43;2.90;;;2.50;;
1839;SDS011;920;48.944;9.148;2023-06-19T07:14:09;3.57;;;2.70;;
1839;SDS011;920;48.944;9.148;2023-06-19T07:16:36;2.87;;;2.60;;
1839;SDS011;920;48.944;9.148;2023-06-19T07:19:04;3.00;;;2.70;;
1839;SDS011;920;48.944;9.148;2023-06-19T07:21:31;3.80;;;2.80;;
1839;SDS011;920;48.944;9.148;2023-06-19T07:23:57;3.10;;;2.67;;
1839;SDS011;920;48.944;9.148;2023-06-19T07:26:25;3.27;;;2.53;;
1839;SDS011;920;48.944;9.148;2023-06-19T07:28:52;3.00;;;2.70;;
1839;SDS011;920;48.944;9.148;2023-06-19T07:31:18;3.20;;;2.90;;
1839;SDS011;920;48.944;9.148;2023-06-19T07:33:45;3.30;;;2.63;;
1839;SDS011;920;48.944;9.148;2023-06-19T07:36:13;3.70;;;2.53;;
1839;SDS011;920;48.944;9.148;2023-06-19T07:38:41;2.87;;;2.50;;
1839;SDS011;920;48.944;9.148;2023-06-19T07:41:08;2.87;;;2.57;;
1839;SDS011;920;48.944;9.148;2023-06-19T07:43:36;3.20;;;2.70;;
1839;SDS011;920;48.944;9.148;2023-06-19T07:46:03;4.57;;;2.70;;
1839;SDS011;920;48.944;9.148;2023-06-19T07:48:29;3.00;;;2.50;;
1839;SDS011;920;48.944;9.148;2023-06-19T07:50:56;4.37;;;2.77;;
1839;SDS011;920;48.944;9.148;2023-06-19T07:53:24;3.07;;;2.70;;
1839;SDS011;920;48.944;9.148;2023-06-19T07:55:51;3.07;;;2.77;;
1839;SDS011;920;48.944;9.148;2023-06-19T07:58:18;3.17;;;2.87;;
1839;SDS011;920;48.944;9.148;2023-06-19T08:00:45;3.83;;;2.93;;
1839;SDS011;920;48.944;9.148;2023-06-19T08:03:11;3.17;;;2.87;;
1839;SDS011;920;48.944;9.148;2023-06-19T08:05:38;4.33;;;2.77;;
1839;SDS011;920;48.944;9.148;2023-06-19T08:08:05;2.90;;;2.63;;
1839;SDS011;920;48.944;9.148;2023-06-19T08:10:33;5.10;;;3.60;;
1839;SDS011;920;48.944;9.148;2023-06-19T08:12:59;2.60;;;2.40;;
1839;SDS011;920;48.944;9.148;2023-06-19T08:15:26;3.07;;;2.77;;
1839;SDS011;920;48.944;9.148;2023-06-19T08:17:53;2.70;;;2.37;;
1839;SDS011;920;48.944;9.148;2023-06-19T08:20:20;3.50;;;2.70;;
1839;SDS011;920;48.944;9.148;2023-06-19T08:22:47;3.30;;;3.00;;
1839;SDS011;920;48.944;9.148;2023-06-19T08:25:14;3.10;;;2.80;;
1839;SDS011;920;48.944;9.148;2023-06-19T08:27:42;3.27;;;2.90;;
1839;SDS011;920;48.944;9.148;2023-06-19T08:30:10;3.00;;;2.70;;
1839;SDS011;920;48.944;9.148;2023-06-19T08:32:37;4.37;;;3.50;;
1839;SDS011;920;48.944;9.148;2023-06-19T08:35:04;3.27;;;2.97;;
1839;SDS011;920;48.944;9.148;2023-06-19T08:37:31;3.30;;;3.00;;
1839;SDS011;920;48.944;9.148;2023-06-19T08:39:58;3.40;;;3.03;;
1839;SDS011;920;48.944;9.148;2023-06-19T08:42:24;3.20;;;2.90;;
1839;SDS011;920;48.944;9.148;2023-06-19T08:44:53;4.53;;;4.13;;
1839;SDS011;920;48.944;9.148;2023-06-19T08:47:20;3.30;;;3.00;;
1839;SDS011;920;48.944;9.148;2023-06-19T08:49:46;3.37;;;3.07;;
1839;SDS011;920;48.944;9.148;2023-06-19T08:52:13;3.77;;;3.30;;
1839;SDS011;920;48.944;9.148;2023-06-19T08:54:40;3.73;;;3.43;;
1839;SDS011;920;48.944;9.148;2023-06-19T08:57:09;3.77;;;3.40;;
1839;SDS011;920;48.944;9.148;2023-06-19T08:59:37;3.67;;;3.37;;
1839;SDS011;920;48.944;9.148;2023-06-19T09:02:06;3.63;;;3.33;;
1839;SDS011;920;48.944;9.148;2023-06-19T09:04:32;3.60;;;3.30;;
1839;SDS011;920;48.944;9.148;2023-06-19T09:07:00;3.90;;;3.60;;
1839;SDS011;920;48.944;9.148;2023-06-19T09:09:36;3.33;;;3.03;;
1839;SDS011;920;48.944;9.148;2023-06-19T09:12:03;3.87;;;3.57;;
1839;SDS011;920;48.944;9.148;2023-06-19T09:14:34;3.43;;;3.13;;
1839;SDS011;920;48.944;9.148;2023-06-19T09:17:02;5.97;;;3.40;;
1839;SDS011;920;48.944;9.148;2023-06-19T09:19:30;4.37;;;3.70;;
1839;SDS011;920;48.944;9.148;2023-06-19T09:22:00;4.73;;;3.80;;
1839;SDS011;920;48.944;9.148;2023-06-19T09:24:33;3.53;;;3.23;;
1839;SDS011;920;48.944;9.148;2023-06-19T09:27:05;3.50;;;3.20;;
1839;SDS011;920;48.944;9.148;2023-06-19T09:29:35;4.23;;;3.83;;
1839;SDS011;920;48.944;9.148;2023-06-19T09:32:02;4.60;;;3.40;;
1839;SDS011;920;48.944;9.148;2023-06-19T09:34:42;3.80;;;3.50;;
1839;SDS011;920;48.944;9.148;2023-06-19T09:37:09;3.80;;;3.50;;
1839;SDS011;920;48.944;9.148;2023-06-19T09:39:36;4.40;;;3.80;;
1839;SDS011;920;48.944;9.148;2023-06-19T09:42:04;4.60;;;3.53;;
1839;SDS011;920;48.944;9.148;2023-06-19T09:44:36;3.40;;;3.10;;
1839;SDS011;920;48.944;9.148;2023-06-19T09:47:06;4.20;;;3.80;;
1839;SDS011;920;48.944;9.148;2023-06-19T09:49:43;4.40;;;3.63;;
1839;SDS011;920;48.944;9.148;2023-06-19T09:52:14;4.10;;;3.70;;
1839;SDS011;920;48.944;9.148;2023-06-19T09:54:41;4.23;;;3.87;;
1839;SDS011;920;48.944;9.148;2023-06-19T09:57:09;4.80;;;3.67;;
1839;SDS011;920;48.944;9.148;2023-06-19T09:59:37;6.93;;;3.40;;
1839;SDS011;920;48.944;9.148;2023-06-19T10:02:05;4.43;;;3.97;;
1839;SDS011;920;48.944;9.148;2023-06-19T10:04:41;4.07;;;3.70;;
1839;SDS011;920;48.944;9.148;2023-06-19T10:07:18;3.77;;;3.47;;
1839;SDS011;920;48.944;9.148;2023-06-19T10:09:56;3.40;;;3.10;;
1839;SDS011;920;48.944;9.148;2023-06-19T10:12:33;3.40;;;3.10;;
1839;SDS011;920;48.944;9.148;2023-06-19T10:15:15;4.23;;;3.17;;
1839;SDS011;920;48.944;9.148;2023-06-19T10:17:43;3.20;;;2.70;;
1839;SDS011;920;48.944;9.148;2023-06-19T10:20:19;3.40;;;3.10;;
1839;SDS011;920;48.944;9.148;2023-06-19T10:22:57;3.73;;;3.37;;
1839;SDS011;920;48.944;9.148;2023-06-19T10:25:27;4.70;;;3.93;;
1839;SDS011;920;48.944;9.148;2023-06-19T10:27:54;3.97;;;3.57;;
1839;SDS011;920;48.944;9.148;2023-06-19T10:30:21;3.93;;;3.60;;
1839;SDS011;920;48.944;9.148;2023-06-19T10:32:49;4.13;;;3.73;;
1839;SDS011;920;48.944;9.148;2023-06-19T10:35:16;3.60;;;3.30;;
1839;SDS011;920;48.944;9.148;2023-06-19T10:37:46;4.10;;;3.70;;
1839;SDS011;920;48.944;9.148;2023-06-19T10:40:14;5.33;;;4.20;;
1839;SDS011;920;48.944;9.148;2023-06-19T10:42:41;4.13;;;3.43;;
1839;SDS011;920;48.944;9.148;2023-06-19T10:45:09;3.70;;;3.40;;
1839;SDS011;920;48.944;9.148;2023-06-19T10:47:39;4.00;;;3.60;;
1839;SDS011;920;48.944;9.148;2023-06-19T10:50:09;4.00;;;3.60;;
1839;SDS011;920;48.944;9.148;2023-06-19T10:52:36;4.03;;;3.73;;
1839;SDS011;920;48.944;9.148;2023-06-19T10:55:03;4.77;;;4.03;;
1839;SDS011;920;48.944;9.148;2023-06-19T10:57:32;4.10;;;3.70;;
1839;SDS011;920;48.944;9.148;2023-06-19T10:59:59;4.60;;;4.10;;
1839;SDS011;920;48.944;9.148;2023-06-19T11:02:26;4.23;;;3.80;;
1839;SDS011;920;48.944;9.148;2023-06-19T11:04:53;4.50;;;4.10;;
1839;SDS011;920;48.944;9.148;2023-06-19T11:07:21;4.10;;;3.70;;
1839;SDS011;920;48.944;9.148;2023-06-19T11:09:48;4.07;;;3.77;;
1839;SDS011;920;48.944;9.148;2023-06-19T11:12:19;4.20;;;3.80;;
1839;SDS011;920;48.944;9.148;2023-06-19T11:14:47;3.93;;;3.50;;
1839;SDS011;920;48.944;9.148;2023-06-19T11:17:14;4.33;;;3.93;;
1839;SDS011;920;48.944;9.148;2023-06-19T11:19:41;4.03;;;3.63;;
1839;SDS011;920;48.944;9.148;2023-06-19T11:22:09;4.53;;;3.70;;
1839;SDS011;920;48.944;9.148;2023-06-19T11:24:36;4.57;;;4.17;;
1839;SDS011;920;48.944;9.148;2023-06-19T11:27:03;4.27;;;3.60;;
1839;SDS011;920;48.944;9.148;2023-06-19T11:29:30;3.90;;;3.60;;
1839;SDS011;920;48.944;9.148;2023-06-19T11:34:46;4.47;;;4.07;;
1839;SDS011;920;48.944;9.148;2023-06-19T11:37:13;4.23;;;3.93;;
1839;SDS011;920;48.944;9.148;2023-06-19T11:39:41;6.77;;;4.10;;
1839;SDS011;920;48.944;9.148;2023-06-19T11:42:07;3.80;;;3.50;;
1839;SDS011;920;48.944;9.148;2023-06-19T11:44:34;3.93;;;3.60;;
1839;SDS011;920;48.944;9.148;2023-06-19T11:47:01;4.10;;;3.70;;
1839;SDS011;920;48.944;9.148;2023-06-19T11:49:33;4.17;;;3.77;;
1839;SDS011;920;48.944;9.148;2023-06-19T11:52:01;5.93;;;3.77;;
1839;SDS011;920;48.944;9.148;2023-06-19T11:54:29;4.10;;;3.80;;
1839;SDS011;920;48.944;9.148;2023-06-19T11:56:56;4.37;;;4.00;;
1839;SDS011;920;48.944;9.148;2023-06-19T11:59:22;4.33;;;3.97;;
1839;SDS011;920;48.944;9.148;2023-06-19T12:01:49;4.60;;;4.20;;
1839;SDS011;920;48.944;9.148;2023-06-19T12:04:16;4.60;;;4.20;;
1839;SDS011;920;48.944;9.148;2023-06-19T12:06:44;3.90;;;3.60;;
1839;SDS011;920;48.944;9.148;2023-06-19T12:09:11;4.30;;;4.00;;
1839;SDS011;920;48.944;9.148;2023-06-19T12:11:37;5.30;;;3.40;;
1839;SDS011;920;48.944;9.148;2023-06-19T12:14:04;4.30;;;3.90;;
1839;SDS011;920;48.944;9.148;2023-06-19T12:16:31;4.23;;;3.83;;
1839;SDS011;920;48.944;9.148;2023-06-19T12:18:57;3.60;;;3.30;;
1839;SDS011;920;48.944;9.148;2023-06-19T12:21:24;3.83;;;3.53;;
1839;SDS011;920;48.944;9.148;2023-06-19T12:23:52;4.10;;;3.80;;
1839;SDS011;920;48.944;9.148;2023-06-19T12:26:19;3.97;;;3.67;;
1839;SDS011;920;48.944;9.148;2023-06-19T12:28:45;3.63;;;3.33;;
1839;SDS011;920;48.944;9.148;2023-06-19T12:31:12;4.10;;;3.80;;
1839;SDS011;920;48.944;9.148;2023-06-19T12:33:39;4.00;;;3.70;;
1839;SDS011;920;48.944;9.148;2023-06-19T12:36:09;5.40;;;4.17;;
1839;SDS011;920;48.944;9.148;2023-06-19T12:38:37;4.10;;;3.80;;
1839;SDS011;920;48.944;9.148;2023-06-19T12:41:05;3.90;;;3.50;;
1839;SDS011;920;48.944;9.148;2023-06-19T12:43:32;4.30;;;3.90;;
1839;SDS011;920;48.944;9.148;2023-06-19T12:45:59;3.93;;;3.63;;
1839;SDS011;920;48.944;9.148;2023-06-19T12:48:26;3.60;;;3.30;;
1839;SDS011;920;48.944;9.148;2023-06-19T12:50:53;3.30;;;3.00;;
1839;SDS011;920;48.944;9.148;2023-06-19T12:53:20;3.70;;;3.40;;
1839;SDS011;920;48.944;9.148;2023-06-19T12:55:51;4.10;;;3.70;;
1839;SDS011;920;48.944;9.148;2023-06-19T12:58:19;3.73;;;3.43;;
1839;SDS011;920;48.944;9.148;2023-06-19T13:00:46;4.13;;;3.70;;
1839;SDS011;920;48.944;9.148;2023-06-19T13:03:13;4.10;;;3.70;;
1839;SDS011;920;48.944;9.148;2023-06-19T13:05:40;4.40;;;3.47;;
1839;SDS011;920;48.944;9.148;2023-06-19T13:08:06;4.00;;;3.70;;
1839;SDS011;920;48.944;9.148;2023-06-19T13:10:33;3.90;;;3.60;;
1839;SDS011;920;48.944;9.148;2023-06-19T13:13:00;3.70;;;3.40;;
1839;SDS011;920;48.944;9.148;2023-06-19T13:15:28;3.83;;;3.53;;
1839;SDS011;920;48.944;9.148;2023-06-19T13:17:54;4.33;;;3.70;;
1839;SDS011;920;48.944;9.148;2023-06-19T13:20:21;4.10;;;3.73;;
1839;SDS011;920;48.944;9.148;2023-06-19T13:22:48;4.00;;;3.60;;
1839;SDS011;920;48.944;9.148;2023-06-19T13:25:15;3.93;;;3.63;;
1839;SDS011;920;48.944;9.148;2023-06-19T13:27:41;3.70;;;3.40;;
1839;SDS011;920;48.944;9.148;2023-06-19T13:30:08;4.30;;;4.00;;
1839;SDS011;920;48.944;9.148;2023-06-19T13:32:37;4.13;;;3.73;;
1839;SDS011;920;48.944;9.148;2023-06-19T13:35:04;4.53;;;3.97;;
1839;SDS011;920;48.944;9.148;2023-06-19T13:37:32;4.00;;;3.70;;
1839;SDS011;920;48.944;9.148;2023-06-19T13:40:00;3.70;;;3.27;;
1839;SDS011;920;48.944;9.148;2023-06-19T13:42:27;3.77;;;3.47;;
1839;SDS011;920;48.944;9.148;2023-06-19T13:44:55;4.83;;;4.43;;
1839;SDS011;920;48.944;9.148;2023-06-19T13:47:22;3.90;;;3.47;;
1839;SDS011;920;48.944;9.148;2023-06-19T13:49:51;4.00;;;3.70;;
1839;SDS011;920;48.944;9.148;2023-06-19T13:52:18;3.90;;;3.60;;
1839;SDS011;920;48.944;9.148;2023-06-19T13:54:45;4.30;;;3.90;;
1839;SDS011;920;48.944;9.148;2023-06-19T13:57:12;4.20;;;3.90;;
1839;SDS011;920;48.944;9.148;2023-06-19T13:59:38;3.60;;;3.30;;
1839;SDS011;920;48.944;9.148;2023-06-19T14:02:05;4.50;;;4.10;;
1839;SDS011;920;48.944;9.148;2023-06-19T14:04:32;4.37;;;3.97;;
1839;SDS011;920;48.944;9.148;2023-06-19T14:07:00;5.37;;;3.87;;
1839;SDS011;920;48.944;9.148;2023-06-19T14:09:27;4.17;;;3.77;;
1839;SDS011;920;48.944;9.148;2023-06-19T14:11:54;4.87;;;3.50;;
1839;SDS011;920;48.944;9.148;2023-06-19T14:14:20;3.70;;;3.40;;
1839;SDS011;920;48.944;9.148;2023-06-19T14:16:47;3.90;;;3.60;;
1839;SDS011;920;48.944;9.148;2023-06-19T14:19:14;3.93;;;3.57;;
1839;SDS011;920;48.944;9.148;2023-06-19T14:21:40;4.00;;;3.70;;
1839;SDS011;920;48.944;9.148;2023-06-19T14:24:08;4.30;;;3.90;;
1839;SDS011;920;48.944;9.148;2023-06-19T14:26:35;4.03;;;3.73;;
1839;SDS011;920;48.944;9.148;2023-06-19T14:29:02;4.10;;;3.80;;
1839;SDS011;920;48.944;9.148;2023-06-19T14:31:29;4.23;;;3.83;;
1839;SDS011;920;48.944;9.148;2023-06-19T14:33:56;4.43;;;4.03;;
1839;SDS011;920;48.944;9.148;2023-06-19T14:36:22;4.43;;;3.70;;
1839;SDS011;920;48.944;9.148;2023-06-19T14:38:49;3.70;;;3.40;;
1839;SDS011;920;48.944;9.148;2023-06-19T14:41:17;4.10;;;3.70;;
1839;SDS011;920;48.944;9.148;2023-06-19T14:43:44;4.57;;;3.90;;
1839;SDS011;920;48.944;9.148;2023-06-19T14:46:11;4.97;;;4.40;;
1839;SDS011;920;48.944;9.148;2023-06-19T14:48:37;4.30;;;3.90;;
1839;SDS011;920;48.944;9.148;2023-06-19T14:51:04;5.07;;;4.17;;
1839;SDS011;920;48.944;9.148;2023-06-19T14:53:31;4.50;;;4.10;;
1839;SDS011;920;48.944;9.148;2023-06-19T14:55:57;4.53;;;4.13;;
1839;SDS011;920;48.944;9.148;2023-06-19T14:58:25;4.07;;;3.77;;
1839;SDS011;920;48.944;9.148;2023-06-19T15:00:53;4.20;;;3.80;;
1839;SDS011;920;48.944;9.148;2023-06-19T15:03:20;4.53;;;4.03;;
1839;SDS011;920;48.944;9.148;2023-06-19T15:05:47;6.20;;;4.10;;
1839;SDS011;920;48.944;9.148;2023-06-19T15:08:13;4.57;;;4.00;;
1839;SDS011;920;48.944;9.148;2023-06-19T15:10:46;4.13;;;3.73;;
1839;SDS011;920;48.944;9.148;2023-06-19T15:13:13;4.00;;;3.70;;
1839;SDS011;920;48.944;9.148;2023-06-19T15:15:42;4.53;;;4.13;;
1839;SDS011;920;48.944;9.148;2023-06-19T15:18:09;5.50;;;4.00;;
1839;SDS011;920;48.944;9.148;2023-06-19T15:20:36;3.93;;;3.63;;
1839;SDS011;920;48.944;9.148;2023-06-19T15:23:03;3.70;;;3.40;;
1839;SDS011;920;48.944;9.148;2023-06-19T15:25:31;3.90;;;3.53;;
1839;SDS011;920;48.944;9.148;2023-06-19T15:27:57;5.67;;;3.80;;
1839;SDS011;920;48.944;9.148;2023-06-19T15:30:24;3.80;;;3.40;;
1839;SDS011;920;48.944;9.148;2023-06-19T15:32:52;3.93;;;3.53;;
1839;SDS011;920;48.944;9.148;2023-06-19T15:35:19;5.07;;;4.57;;
1839;SDS011;920;48.944;9.148;2023-06-19T15:37:46;4.33;;;3.93;;